createdAt,value
2022-12-31T00:01:36.545Z,100357.38
2022-12-31T00:04:03.305Z,100353.69
2022-12-31T00:06:33.314Z,100347.34
2022-12-31T00:09:01.692Z,100350.59
2022-12-31T00:11:29.571Z,100347.56
2022-12-31T00:13:56.574Z,100346.19
2022-12-31T00:16:35.233Z,100358.03
2022-12-31T00:19:01.893Z,100357.22
2022-12-31T00:21:31.186Z,100362.59
2022-12-31T00:23:58.286Z,100359.75
2022-12-31T00:26:27.521Z,100361.44
2022-12-31T00:28:55.565Z,100365.19
2022-12-31T00:31:25.833Z,100365.34
2022-12-31T00:33:52.942Z,100367.06
2022-12-31T00:36:22.053Z,100370.47
2022-12-31T00:38:50.017Z,100368.75
2022-12-31T00:41:18.678Z,100369.78
2022-12-31T00:43:45.278Z,100365.53
2022-12-31T00:46:13.017Z,100365.69
2022-12-31T00:48:39.736Z,100373.50
2022-12-31T00:51:08.971Z,100379.94
2022-12-31T00:53:35.741Z,100368.06
2022-12-31T00:56:08.577Z,100372.97
2022-12-31T00:58:35.123Z,100368.59
2022-12-31T01:01:14.753Z,100368.56
2022-12-31T01:03:41.167Z,100362.97
2022-12-31T01:06:08.102Z,100365.53
2022-12-31T01:08:35.143Z,100358.56
2022-12-31T01:11:02.260Z,100371.97
2022-12-31T01:13:28.698Z,100364.16
2022-12-31T01:15:55.259Z,100363.47
2022-12-31T01:18:21.658Z,100374.19
2022-12-31T01:20:47.973Z,100370.94
2022-12-31T01:23:14.330Z,100368.88
2022-12-31T01:25:43.803Z,100372.44
2022-12-31T01:28:10.353Z,100362.25
2022-12-31T01:30:39.992Z,100369.91
2022-12-31T01:33:06.441Z,100370.03
2022-12-31T01:35:35.555Z,100374.81
2022-12-31T01:38:01.863Z,100370.53
2022-12-31T01:40:28.222Z,100377.19
2022-12-31T01:42:58.491Z,100380.75
2022-12-31T01:45:25.279Z,100376.13
2022-12-31T01:47:57.614Z,100374.28
2022-12-31T01:50:30.600Z,100371.91
2022-12-31T01:53:01.426Z,100375.78
2022-12-31T01:55:44.850Z,100384.97
2022-12-31T01:58:17.701Z,100390.84
2022-12-31T02:00:44.570Z,100392.41
2022-12-31T02:03:12.432Z,100398.84
2022-12-31T02:05:55.904Z,100404.78
2022-12-31T02:08:22.286Z,100397.66
2022-12-31T02:10:48.654Z,100386.66
2022-12-31T02:13:15.397Z,100372.72
2022-12-31T02:15:54.867Z,100383.56
2022-12-31T02:18:34.982Z,100362.47
2022-12-31T02:21:24.038Z,100362.66
2022-12-31T02:24:02.584Z,100381.63
2022-12-31T02:26:47.885Z,100372.97
2022-12-31T02:30:02.310Z,100366.16
2022-12-31T02:32:34.595Z,100347.34
2022-12-31T02:35:07.571Z,100330.00
2022-12-31T02:37:36.077Z,100340.25
2022-12-31T02:40:07.332Z,100333.25
2022-12-31T02:42:33.640Z,100345.97
2022-12-31T02:45:00.221Z,100325.94
2022-12-31T02:47:39.974Z,100336.47
2022-12-31T02:50:35.197Z,100363.38
2022-12-31T02:53:26.167Z,100366.41
2022-12-31T02:56:02.633Z,100371.84
2022-12-31T02:58:33.730Z,100391.88
2022-12-31T03:01:00.751Z,100391.41
2022-12-31T03:03:28.532Z,100392.88
2022-12-31T03:05:56.250Z,100400.84
2022-12-31T03:08:24.938Z,100408.59
2022-12-31T03:10:51.904Z,100404.28
2022-12-31T03:13:18.490Z,100409.31
2022-12-31T03:15:45.015Z,100398.19
2022-12-31T03:18:15.056Z,100398.31
2022-12-31T03:20:49.501Z,100405.47
2022-12-31T03:23:19.669Z,100404.28
2022-12-31T03:25:46.827Z,100407.47
2022-12-31T03:28:20.650Z,100402.53
2022-12-31T03:30:50.090Z,100417.25
2022-12-31T03:33:16.551Z,100406.78
2022-12-31T03:35:44.860Z,100411.34
2022-12-31T03:38:11.666Z,100413.38
2022-12-31T03:40:44.666Z,100398.97
2022-12-31T03:43:11.072Z,100402.41
2022-12-31T03:45:37.532Z,100410.06
2022-12-31T03:48:05.738Z,100401.41
2022-12-31T03:50:32.537Z,100389.63
2022-12-31T03:52:59.483Z,100401.41
2022-12-31T03:55:26.054Z,100387.84
2022-12-31T03:57:52.433Z,100395.03
2022-12-31T04:00:21.327Z,100392.28
2022-12-31T04:02:49.179Z,100398.84
2022-12-31T04:05:16.971Z,100394.94
2022-12-31T04:07:43.783Z,100388.84
2022-12-31T04:10:12.770Z,100373.91
2022-12-31T04:12:39.850Z,100378.84
2022-12-31T04:15:07.255Z,100384.91
2022-12-31T04:17:34.007Z,100371.84
2022-12-31T04:20:00.480Z,100366.97
2022-12-31T04:22:27.150Z,100357.94
2022-12-31T04:24:53.502Z,100358.09
2022-12-31T04:27:19.847Z,100363.03
2022-12-31T04:29:46.267Z,100358.22
2022-12-31T04:32:12.737Z,100355.84
2022-12-31T04:34:39.127Z,100355.31
2022-12-31T04:37:05.787Z,100360.03
2022-12-31T04:39:32.354Z,100359.88
2022-12-31T04:41:58.785Z,100363.59
2022-12-31T04:44:25.293Z,100372.25
2022-12-31T04:46:51.794Z,100360.81
2022-12-31T04:49:18.129Z,100371.91
2022-12-31T04:51:44.659Z,100378.50
2022-12-31T04:54:11.210Z,100367.69
2022-12-31T04:56:37.757Z,100377.19
2022-12-31T04:59:05.112Z,100365.81
2022-12-31T05:01:31.810Z,100377.66
2022-12-31T05:03:58.441Z,100358.34
2022-12-31T05:06:24.766Z,100367.16
2022-12-31T05:08:51.374Z,100366.06
2022-12-31T05:11:17.881Z,100396.94
2022-12-31T05:13:44.561Z,100368.31
2022-12-31T05:16:11.121Z,100351.78
2022-12-31T05:18:37.841Z,100374.94
2022-12-31T05:21:04.794Z,100380.66
2022-12-31T05:23:31.332Z,100373.69
2022-12-31T05:25:57.791Z,100369.50
2022-12-31T05:28:24.122Z,100394.25
2022-12-31T05:30:51.602Z,100381.44
2022-12-31T05:33:18.677Z,100391.97
2022-12-31T05:35:45.806Z,100378.78
2022-12-31T05:38:12.177Z,100395.72
2022-12-31T05:40:38.547Z,100401.72
2022-12-31T05:43:05.062Z,100377.50
2022-12-31T05:45:31.595Z,100389.41
2022-12-31T05:47:58.516Z,100385.22
2022-12-31T05:50:25.189Z,100395.72
2022-12-31T05:52:51.630Z,100376.91
2022-12-31T05:55:18.000Z,100386.56
2022-12-31T05:57:44.387Z,100390.31
2022-12-31T06:00:12.041Z,100395.06
2022-12-31T06:02:38.466Z,100394.47
2022-12-31T06:05:05.377Z,100388.88
2022-12-31T06:07:31.966Z,100391.59
2022-12-31T06:09:58.501Z,100380.56
2022-12-31T06:12:25.111Z,100385.31
2022-12-31T06:14:51.900Z,100382.13
2022-12-31T06:17:18.463Z,100394.13
2022-12-31T06:19:45.001Z,100391.63
2022-12-31T06:22:11.340Z,100403.47
2022-12-31T06:24:37.673Z,100397.53
2022-12-31T06:27:04.019Z,100390.44
2022-12-31T06:29:30.327Z,100382.97
2022-12-31T06:31:57.937Z,100391.16
2022-12-31T06:34:24.318Z,100397.75
2022-12-31T06:36:50.993Z,100397.59
2022-12-31T06:39:17.348Z,100416.97
2022-12-31T06:41:43.757Z,100404.28
2022-12-31T06:44:10.141Z,100413.41
2022-12-31T06:46:36.575Z,100416.97
2022-12-31T06:49:03.289Z,100416.84
2022-12-31T06:51:29.732Z,100418.72
2022-12-31T06:53:56.058Z,100425.00
2022-12-31T06:56:33.002Z,100426.34
2022-12-31T06:59:00.431Z,100435.22
2022-12-31T07:01:58.740Z,100419.97
2022-12-31T07:04:43.908Z,100403.22
2022-12-31T07:07:28.425Z,100420.38
2022-12-31T07:10:03.029Z,100395.75
2022-12-31T07:12:59.415Z,100405.44
2022-12-31T07:15:41.615Z,100410.88
2022-12-31T07:18:20.304Z,100413.75
2022-12-31T07:20:46.878Z,100399.34
2022-12-31T07:23:13.492Z,100390.50
2022-12-31T07:25:51.321Z,100405.94
2022-12-31T07:28:48.121Z,100406.31
2022-12-31T07:31:47.563Z,100415.31
2022-12-31T07:34:16.905Z,100416.31
2022-12-31T07:37:07.223Z,100427.88
2022-12-31T07:39:48.751Z,100417.34
2022-12-31T07:42:33.310Z,100421.91
2022-12-31T07:45:14.708Z,100433.28
2022-12-31T07:47:41.661Z,100420.91
2022-12-31T07:50:15.225Z,100432.78
2022-12-31T07:52:42.006Z,100433.13
2022-12-31T07:55:08.621Z,100440.25
2022-12-31T07:57:42.537Z,100437.19
2022-12-31T08:00:14.360Z,100448.03
2022-12-31T08:02:59.842Z,100438.22
2022-12-31T08:05:48.298Z,100428.53
2022-12-31T08:08:33.229Z,100442.13
2022-12-31T08:11:10.291Z,100441.75
2022-12-31T08:13:37.810Z,100454.50
2022-12-31T08:16:10.885Z,100454.31
2022-12-31T08:18:37.494Z,100440.25
2022-12-31T08:21:35.021Z,100450.78
2022-12-31T08:24:21.448Z,100454.69
2022-12-31T08:26:56.914Z,100455.34
2022-12-31T08:29:39.562Z,100465.38
2022-12-31T08:32:21.742Z,100459.28
2022-12-31T08:34:57.529Z,100481.69
2022-12-31T08:37:40.234Z,100500.91
2022-12-31T08:40:51.481Z,100501.56
2022-12-31T08:43:40.270Z,100502.09
2022-12-31T08:46:18.987Z,100516.19
2022-12-31T08:48:45.770Z,100513.47
2022-12-31T08:51:22.553Z,100518.06
2022-12-31T08:53:49.823Z,100533.16
2022-12-31T08:56:36.109Z,100542.84
2022-12-31T08:59:10.299Z,100549.63
2022-12-31T09:01:56.132Z,100559.16
2022-12-31T09:04:44.161Z,100559.69
2022-12-31T09:07:11.926Z,100565.28
2022-12-31T09:09:59.370Z,100566.47
2022-12-31T09:12:40.185Z,100575.13
2022-12-31T09:15:18.118Z,100569.34
2022-12-31T09:17:46.952Z,100587.34
2022-12-31T09:20:17.960Z,100578.34
2022-12-31T09:22:44.595Z,100577.31
2022-12-31T09:25:15.824Z,100563.25
2022-12-31T09:28:09.533Z,100575.31
2022-12-31T09:30:47.922Z,100570.19
2022-12-31T09:33:40.269Z,100583.47
2022-12-31T09:36:10.855Z,100572.78
2022-12-31T09:39:04.496Z,100587.19
2022-12-31T09:41:38.041Z,100582.81
2022-12-31T09:44:23.246Z,100588.06
2022-12-31T09:47:07.887Z,100576.00
2022-12-31T09:49:47.221Z,100577.88
2022-12-31T09:52:30.081Z,100584.13
2022-12-31T09:55:02.358Z,100586.00
2022-12-31T09:57:37.803Z,100602.66
2022-12-31T10:00:21.762Z,100586.00
2022-12-31T10:03:25.968Z,100600.59
2022-12-31T10:06:01.573Z,100585.78
2022-12-31T10:08:40.129Z,100596.16
2022-12-31T10:11:29.651Z,100589.94
2022-12-31T10:14:17.521Z,100595.91
2022-12-31T10:16:43.845Z,100597.44
2022-12-31T10:19:15.598Z,100597.88
2022-12-31T10:21:56.104Z,100608.16
2022-12-31T10:24:50.459Z,100579.81
2022-12-31T10:27:38.557Z,100590.25
2022-12-31T10:30:21.800Z,100599.28
2022-12-31T10:33:06.590Z,100608.09
2022-12-31T10:35:43.410Z,100602.88
2022-12-31T10:38:12.829Z,100600.34
2022-12-31T10:40:54.683Z,100611.88
2022-12-31T10:43:50.136Z,100587.53
2022-12-31T10:46:55.882Z,100604.53
2022-12-31T10:49:38.657Z,100607.22
2022-12-31T10:52:49.243Z,100586.75
2022-12-31T10:55:53.224Z,100590.22
2022-12-31T10:58:50.156Z,100599.28
2022-12-31T11:01:35.134Z,100580.75
2022-12-31T11:04:32.413Z,100600.69
2022-12-31T11:07:32.662Z,100603.78
2022-12-31T11:10:12.966Z,100607.56
2022-12-31T11:12:54.167Z,100598.69
2022-12-31T11:15:22.768Z,100606.72
2022-12-31T11:18:15.393Z,100611.00
2022-12-31T11:21:00.800Z,100587.22
2022-12-31T11:23:45.438Z,100583.13
2022-12-31T11:26:38.322Z,100574.69
2022-12-31T11:29:14.828Z,100580.13
2022-12-31T11:31:59.759Z,100601.22
2022-12-31T11:34:38.288Z,100599.88
2022-12-31T11:37:29.579Z,100601.66
2022-12-31T11:40:14.908Z,100597.94
2022-12-31T11:42:59.330Z,100614.97
2022-12-31T11:45:51.060Z,100615.91
2022-12-31T11:48:32.532Z,100603.97
2022-12-31T11:51:08.389Z,100613.94
2022-12-31T11:53:57.879Z,100593.63
2022-12-31T11:56:27.279Z,100603.91
2022-12-31T11:58:56.210Z,100618.59
2022-12-31T12:01:47.258Z,100611.41
2022-12-31T12:04:13.651Z,100608.47
2022-12-31T12:06:40.422Z,100600.47
2022-12-31T12:09:13.212Z,100597.09
2022-12-31T12:11:41.025Z,100592.19
2022-12-31T12:14:34.221Z,100588.78
2022-12-31T12:17:05.170Z,100601.91
2022-12-31T12:19:34.100Z,100595.00
2022-12-31T12:22:13.719Z,100585.47
2022-12-31T12:24:40.606Z,100593.81
2022-12-31T12:27:21.427Z,100583.28
2022-12-31T12:29:48.022Z,100595.34
2022-12-31T12:32:20.497Z,100600.25
2022-12-31T12:34:49.846Z,100580.75
2022-12-31T12:37:37.043Z,100598.94
2022-12-31T12:40:07.784Z,100608.50
2022-12-31T12:42:34.200Z,100597.78
2022-12-31T12:45:22.801Z,100584.84
2022-12-31T12:47:55.083Z,100587.38
2022-12-31T12:50:24.582Z,100592.13
2022-12-31T12:53:03.887Z,100598.78
2022-12-31T12:55:56.047Z,100591.47
2022-12-31T12:58:48.410Z,100614.63
2022-12-31T13:01:34.837Z,100612.72
2022-12-31T13:04:35.830Z,100619.69
2022-12-31T13:07:23.974Z,100623.28
2022-12-31T13:10:04.736Z,100604.38
2022-12-31T13:13:22.633Z,100641.50
2022-12-31T13:15:41.579Z,100608.13
2022-12-31T13:18:19.375Z,100603.91
2022-12-31T13:21:10.685Z,100611.09
2022-12-31T13:23:47.065Z,100622.19
2022-12-31T13:26:36.491Z,100618.31
2022-12-31T13:29:04.059Z,100619.38
2022-12-31T13:31:35.181Z,100625.41
2022-12-31T13:34:13.003Z,100628.72
2022-12-31T13:36:42.025Z,100640.97
2022-12-31T13:39:16.748Z,100635.16
2022-12-31T13:41:56.760Z,100647.47
2022-12-31T13:44:35.120Z,100649.00
2022-12-31T13:47:12.572Z,100629.78
2022-12-31T13:49:48.365Z,100634.38
2022-12-31T13:52:36.825Z,100641.88
2022-12-31T13:55:13.340Z,100632.19
2022-12-31T13:57:48.015Z,100632.19
2022-12-31T14:00:20.563Z,100626.53
2022-12-31T14:03:09.264Z,100634.16
2022-12-31T14:05:44.604Z,100639.44
2022-12-31T14:08:11.044Z,100632.44
2022-12-31T14:10:54.414Z,100627.72
2022-12-31T14:13:45.745Z,100627.81
2022-12-31T14:16:19.325Z,100617.41
2022-12-31T14:19:16.947Z,100617.38
2022-12-31T14:21:53.233Z,100632.22
2022-12-31T14:24:25.806Z,100651.47
2022-12-31T14:27:00.601Z,100639.53
2022-12-31T14:29:39.493Z,100651.81
2022-12-31T14:32:08.590Z,100671.88
2022-12-31T14:34:50.133Z,100663.94
2022-12-31T14:37:35.314Z,100660.91
2022-12-31T14:40:41.164Z,100659.50
2022-12-31T14:43:13.601Z,100662.75
2022-12-31T14:45:56.159Z,100667.69
2022-12-31T14:48:28.828Z,100658.81
2022-12-31T14:50:59.070Z,100656.41
2022-12-31T14:53:28.215Z,100671.53
2022-12-31T14:56:06.954Z,100670.25
2022-12-31T14:58:39.771Z,100671.97
2022-12-31T15:01:19.543Z,100672.69
2022-12-31T15:03:47.108Z,100669.41
2022-12-31T15:06:22.332Z,100674.34
2022-12-31T15:09:19.949Z,100683.69
2022-12-31T15:12:04.439Z,100690.72
2022-12-31T15:15:01.859Z,100667.00
2022-12-31T15:17:44.413Z,100675.81
2022-12-31T15:20:19.118Z,100664.19
2022-12-31T15:22:51.280Z,100670.13
2022-12-31T15:25:47.473Z,100663.13
2022-12-31T15:28:33.412Z,100653.97
2022-12-31T15:31:20.340Z,100665.84
2022-12-31T15:34:03.587Z,100660.03
2022-12-31T15:36:35.785Z,100640.16
2022-12-31T15:39:07.610Z,100645.59
2022-12-31T15:42:18.237Z,100652.81
2022-12-31T15:44:55.137Z,100655.19
2022-12-31T15:47:31.236Z,100653.66
2022-12-31T15:50:02.949Z,100660.66
2022-12-31T15:52:55.287Z,100652.75
2022-12-31T15:55:22.883Z,100654.47
2022-12-31T15:57:50.274Z,100641.38
2022-12-31T16:00:20.765Z,100650.94
2022-12-31T16:02:48.197Z,100658.56
2022-12-31T16:05:26.400Z,100659.78
2022-12-31T16:07:58.146Z,100665.88
2022-12-31T16:10:30.590Z,100639.81
2022-12-31T16:12:58.549Z,100649.16
2022-12-31T16:15:31.511Z,100660.56
2022-12-31T16:18:05.940Z,100656.34
2022-12-31T16:20:34.002Z,100664.56
2022-12-31T16:23:02.087Z,100657.31
2022-12-31T16:25:32.910Z,100643.53
2022-12-31T16:28:02.715Z,100642.84
2022-12-31T16:30:31.524Z,100631.44
2022-12-31T16:33:02.945Z,100622.38
2022-12-31T16:35:37.064Z,100617.13
2022-12-31T16:38:18.175Z,100625.91
2022-12-31T16:41:02.473Z,100633.81
2022-12-31T16:43:36.687Z,100626.53
2022-12-31T16:46:15.926Z,100631.94
2022-12-31T16:48:47.002Z,100629.75
2022-12-31T16:51:20.670Z,100639.97
2022-12-31T16:53:48.485Z,100639.44
2022-12-31T16:56:24.047Z,100638.28
2022-12-31T16:59:03.156Z,100638.47
2022-12-31T17:01:34.110Z,100636.06
2022-12-31T17:04:04.626Z,100622.41
2022-12-31T17:06:31.081Z,100611.69
2022-12-31T17:08:58.848Z,100615.19
2022-12-31T17:11:35.347Z,100613.19
2022-12-31T17:14:08.125Z,100638.69
2022-12-31T17:17:03.274Z,100638.69
2022-12-31T17:19:45.826Z,100624.22
2022-12-31T17:22:31.651Z,100614.69
2022-12-31T17:25:25.745Z,100622.69
2022-12-31T17:27:58.267Z,100622.56
2022-12-31T17:30:27.407Z,100627.13
2022-12-31T17:33:09.021Z,100619.84
2022-12-31T17:35:38.388Z,100622.38
2022-12-31T17:38:23.190Z,100619.78
2022-12-31T17:40:52.140Z,100613.50
2022-12-31T17:43:22.232Z,100624.25
2022-12-31T17:45:51.322Z,100612.47
2022-12-31T17:48:19.927Z,100644.53
2022-12-31T17:50:51.745Z,100631.41
2022-12-31T17:53:19.069Z,100621.00
2022-12-31T17:55:49.167Z,100622.81
2022-12-31T17:58:29.459Z,100608.16
2022-12-31T18:00:57.382Z,100632.53
2022-12-31T18:03:23.948Z,100624.28
2022-12-31T18:05:50.315Z,100624.66
2022-12-31T18:08:16.673Z,100634.53
2022-12-31T18:10:44.366Z,100632.59
2022-12-31T18:13:15.851Z,100624.53
2022-12-31T18:15:42.181Z,100619.44
2022-12-31T18:18:24.450Z,100621.63
2022-12-31T18:21:02.805Z,100628.25
2022-12-31T18:23:35.346Z,100614.78
2022-12-31T18:26:01.692Z,100605.38
2022-12-31T18:28:29.415Z,100621.44
2022-12-31T18:30:55.891Z,100608.28
2022-12-31T18:33:22.377Z,100615.25
2022-12-31T18:36:08.150Z,100619.66
2022-12-31T18:38:35.626Z,100629.00
2022-12-31T18:41:02.245Z,100624.44
2022-12-31T18:43:28.613Z,100632.09
2022-12-31T18:45:55.003Z,100630.34
2022-12-31T18:48:21.413Z,100621.19
2022-12-31T18:50:49.533Z,100626.28
2022-12-31T18:53:21.133Z,100638.53
2022-12-31T18:55:52.021Z,100634.22
2022-12-31T18:58:18.961Z,100613.00
2022-12-31T19:00:49.649Z,100624.78
2022-12-31T19:03:18.830Z,100641.41
2022-12-31T19:05:45.800Z,100641.97
2022-12-31T19:08:12.224Z,100644.91
2022-12-31T19:10:38.603Z,100652.22
2022-12-31T19:13:05.036Z,100656.16
2022-12-31T19:15:33.298Z,100659.19
2022-12-31T19:18:01.567Z,100656.34
2022-12-31T19:20:29.395Z,100648.28
2022-12-31T19:22:56.480Z,100667.75
2022-12-31T19:25:34.480Z,100649.16
2022-12-31T19:28:02.643Z,100668.38
2022-12-31T19:30:32.113Z,100655.63
2022-12-31T19:32:59.064Z,100664.19
2022-12-31T19:35:26.742Z,100651.31
2022-12-31T19:37:54.915Z,100650.38
2022-12-31T19:40:27.183Z,100661.44
2022-12-31T19:42:54.636Z,100656.56
2022-12-31T19:45:27.136Z,100648.94
2022-12-31T19:47:55.658Z,100647.78
2022-12-31T19:50:25.055Z,100660.84
2022-12-31T19:52:54.531Z,100657.31
2022-12-31T19:55:23.454Z,100660.50
2022-12-31T19:57:49.778Z,100657.75
2022-12-31T20:00:18.122Z,100660.03
2022-12-31T20:02:47.095Z,100669.03
2022-12-31T20:05:16.039Z,100659.03
2022-12-31T20:07:42.571Z,100670.28
2022-12-31T20:10:09.144Z,100665.19
2022-12-31T20:12:40.554Z,100674.16
2022-12-31T20:15:10.840Z,100663.56
2022-12-31T20:17:37.505Z,100662.75
2022-12-31T20:20:05.573Z,100672.97
2022-12-31T20:22:32.505Z,100671.19
2022-12-31T20:24:59.103Z,100673.59
2022-12-31T20:27:25.687Z,100690.16
2022-12-31T20:29:52.153Z,100687.09
2022-12-31T20:32:18.673Z,100670.13
2022-12-31T20:34:45.176Z,100665.59
2022-12-31T20:37:11.589Z,100674.78
2022-12-31T20:39:38.289Z,100683.25
2022-12-31T20:42:04.653Z,100669.97
2022-12-31T20:44:31.020Z,100671.38
2022-12-31T20:46:57.941Z,100685.38
2022-12-31T20:49:52.256Z,100677.63
2022-12-31T20:52:10.737Z,100683.28
2022-12-31T20:54:37.123Z,100682.09
2022-12-31T20:57:03.544Z,100681.97
2022-12-31T20:59:29.906Z,100684.69
2022-12-31T21:02:20.520Z,100687.25
2022-12-31T21:04:42.921Z,100694.16
2022-12-31T21:07:09.383Z,100690.06
2022-12-31T21:09:35.716Z,100682.22
2022-12-31T21:12:02.221Z,100692.41
2022-12-31T21:14:28.640Z,100685.72
2022-12-31T21:16:55.013Z,100680.09
2022-12-31T21:19:21.360Z,100692.78
2022-12-31T21:21:47.733Z,100691.78
2022-12-31T21:24:20.182Z,100688.34
2022-12-31T21:26:50.181Z,100713.69
2022-12-31T21:29:16.579Z,100699.38
2022-12-31T21:31:43.357Z,100713.56
2022-12-31T21:34:09.853Z,100721.25
2022-12-31T21:36:36.406Z,100718.88
2022-12-31T21:39:03.195Z,100728.25
2022-12-31T21:41:33.325Z,100727.06
2022-12-31T21:44:00.883Z,100724.16
2022-12-31T21:46:27.290Z,100721.09
2022-12-31T21:48:55.622Z,100726.38
2022-12-31T21:51:22.155Z,100726.03
2022-12-31T21:53:48.519Z,100721.19
2022-12-31T21:56:15.066Z,100711.44
2022-12-31T21:58:44.085Z,100725.84
2022-12-31T22:01:21.273Z,100724.78
2022-12-31T22:03:47.840Z,100739.78
2022-12-31T22:06:24.186Z,100734.00
2022-12-31T22:08:53.588Z,100734.84
2022-12-31T22:11:22.460Z,100729.25
2022-12-31T22:13:49.281Z,100729.56
2022-12-31T22:16:15.976Z,100728.88
2022-12-31T22:18:43.096Z,100725.50
2022-12-31T22:21:18.360Z,100733.41
2022-12-31T22:23:48.266Z,100736.88
2022-12-31T22:26:16.638Z,100731.84
2022-12-31T22:28:44.798Z,100742.81
2022-12-31T22:31:20.551Z,100736.88
2022-12-31T22:33:47.644Z,100742.84
2022-12-31T22:36:18.226Z,100743.69
2022-12-31T22:38:45.387Z,100749.31
2022-12-31T22:41:14.610Z,100732.91
2022-12-31T22:43:49.080Z,100728.31
2022-12-31T22:46:21.395Z,100742.31
2022-12-31T22:48:48.361Z,100747.59
2022-12-31T22:51:15.674Z,100739.34
2022-12-31T22:53:42.643Z,100740.25
2022-12-31T22:56:11.240Z,100745.25
2022-12-31T22:58:38.154Z,100766.88
2022-12-31T23:01:14.287Z,100722.09
2022-12-31T23:03:44.088Z,100763.66
2022-12-31T23:06:10.998Z,100754.47
2022-12-31T23:08:38.708Z,100757.91
2022-12-31T23:11:06.018Z,100763.41
2022-12-31T23:13:42.138Z,100751.94
2022-12-31T23:16:11.502Z,100767.13
2022-12-31T23:18:37.913Z,100765.75
2022-12-31T23:21:10.147Z,100765.94
2022-12-31T23:23:36.710Z,100765.56
2022-12-31T23:26:03.230Z,100784.81
2022-12-31T23:28:29.619Z,100780.88
2022-12-31T23:30:56.230Z,100783.31
2022-12-31T23:33:25.441Z,100775.13
2022-12-31T23:36:04.962Z,100785.50
2022-12-31T23:38:31.347Z,100781.63
2022-12-31T23:40:57.796Z,100779.75
2022-12-31T23:43:24.409Z,100781.56
2022-12-31T23:45:51.394Z,100788.75
2022-12-31T23:48:17.929Z,100784.47
2022-12-31T23:50:50.816Z,100772.03
2022-12-31T23:53:19.455Z,100791.59
2022-12-31T23:55:46.044Z,100782.44
2022-12-31T23:58:12.406Z,100792.53
